Time;durP1;ratioP1;P1;durP2;ratioP2;P2;SDS_P1;SDS_P2;PMS_P1;PMS_P2;Temp;Humidity;BMP_temperature;BMP_pressure;BME280_temperature;BME280_humidity;BME280_pressure;Samples;Min_cycle;Max_cycle;Signal;HPM_P1;HPM_P2
2022/01/14 00:03:00;;;;;;;25.25;7.50;;;;;;;3.13;100.00;103215.34;6361084;28;20074;-78
2022/01/14 00:06:01;;;;;;;18.27;8.00;;;;;;;3.20;100.00;103219.81;6361005;28;20050;-78
2022/01/14 00:09:06;;;;;;;25.58;8.45;;;;;;;3.14;100.00;103208.44;6361486;28;20040;-79
2022/01/14 00:12:15;;;;;;;21.35;7.57;;;;;;;3.21;100.00;103205.09;6361562;28;20410;-78
2022/01/14 00:15:24;;;;;;;31.33;10.20;;;;;;;3.23;100.00;103213.81;6361556;28;20081;-78
2022/01/14 00:18:27;;;;;;;;;;;;;;;3.17;100.00;103214.53;6363656;28;20044;-79
2022/01/14 00:21:29;;;;;;;25.75;7.03;;;;;;;3.17;100.00;103208.47;6358025;28;20302;-78
2022/01/14 00:31:38;;;;;;;21.25;7.75;;;;;;;3.16;100.00;103201.53;6346161;28;20093;-78
2022/01/14 00:34:31;;;;;;;23.85;6.82;;;;;;;3.13;100.00;103191.94;6336542;28;20495;-78
2022/01/14 00:37:32;;;;;;;30.85;8.10;;;;;;;3.16;100.00;103196.34;6345685;28;20430;-78
2022/01/14 00:40:34;;;;;;;21.85;7.70;;;;;;;3.18;100.00;103181.63;6357388;28;20047;-78
2022/01/14 00:43:37;;;;;;;26.90;8.02;;;;;;;3.18;100.00;103179.03;6357959;28;20490;-78
2022/01/14 00:46:39;;;;;;;19.25;7.65;;;;;;;3.15;100.00;103171.22;6357424;28;20052;-78
2022/01/14 00:49:42;;;;;;;20.95;7.88;;;;;;;3.14;100.00;103180.75;6357412;28;20052;-78
2022/01/14 00:52:44;;;;;;;21.42;8.48;;;;;;;3.16;100.00;103179.03;6357917;28;20050;-78
2022/01/14 00:55:48;;;;;;;24.60;8.15;;;;;;;3.16;100.00;103185.94;6357647;28;20052;-79
2022/01/14 01:02:10;;;;;;;20.98;6.85;;;;;;;3.11;100.00;103169.41;6339912;28;20116;-78
2022/01/14 01:05:14;;;;;;;16.40;6.47;;;;;;;3.14;100.00;103174.69;6349431;28;20426;-78
2022/01/14 01:08:21;;;;;;;33.25;9.20;;;;;;;3.10;100.00;103165.94;6361653;28;20055;-78
2022/01/14 01:11:27;;;;;;;30.58;8.43;;;;;;;3.17;100.00;103172.09;6359746;28;20048;-79
2022/01/14 01:14:39;;;;;;;22.95;8.68;;;;;;;3.14;100.00;103162.56;6360145;28;20077;-79
2022/01/14 01:17:41;;;;;;;27.08;9.20;;;;;;;3.16;100.00;103166.03;6360702;28;20067;-78
2022/01/14 01:20:43;;;;;;;24.98;7.93;;;;;;;3.16;100.00;103168.63;6359440;28;20048;-78
2022/01/14 01:23:45;;;;;;;25.52;7.22;;;;;;;3.19;100.00;103180.81;6360127;28;20044;-78
2022/01/14 01:26:47;;;;;;;19.27;8.35;;;;;;;3.15;100.00;103172.09;6360166;28;20060;-78
2022/01/14 01:29:54;;;;;;;29.55;8.60;;;;;;;3.14;100.00;103159.97;6358704;28;20517;-78
2022/01/14 01:32:56;;;;;;;21.60;8.43;;;;;;;3.17;100.00;103156.50;6362175;28;20059;-78
2022/01/14 01:35:58;;;;;;;32.97;9.38;;;;;;;3.18;100.00;103159.16;6360303;28;20047;-78
2022/01/14 01:39:00;;;;;;;31.73;10.13;;;;;;;3.17;100.00;103162.59;6359049;28;20050;-78
2022/01/14 01:42:06;;;;;;;18.48;7.47;;;;;;;3.15;100.00;103159.09;6359498;28;20067;-78
2022/01/14 01:45:10;;;;;;;29.45;8.07;;;;;;;3.16;100.00;103166.03;6358536;28;20047;-78
2022/01/14 01:48:12;;;;;;;30.50;9.32;;;;;;;3.16;100.00;103159.97;6359541;28;20537;-78
2022/01/14 01:51:15;;;;;;;18.52;7.60;;;;;;;3.18;100.00;103159.16;6359689;28;20047;-78
2022/01/14 01:54:17;;;;;;;28.27;8.13;;;;;;;3.25;100.00;103165.31;6360315;28;20067;-78
2022/01/14 01:57:19;;;;;;;29.58;8.63;;;;;;;3.17;100.00;103159.97;6357793;28;20040;-78
2022/01/14 02:00:23;;;;;;;30.00;8.35;;;;;;;3.17;100.00;103156.50;6335896;28;20056;-78
2022/01/14 02:03:24;;;;;;;21.98;8.05;;;;;;;3.20;100.00;103164.38;6334678;28;20067;-78
2022/01/14 02:06:27;;;;;;;20.70;7.38;;;;;;;3.18;100.00;103155.66;6332805;28;20055;-78
2022/01/14 02:09:28;;;;;;;36.70;8.90;;;;;;;3.21;100.00;103154.00;6331049;28;20040;-78
2022/01/14 02:12:36;;;;;;;21.92;8.27;;;;;;;3.21;100.00;103153.13;6331871;28;20498;-78
2022/01/14 02:15:47;;;;;;;23.52;9.02;;;;;;;3.27;100.00;103153.22;6333128;28;20070;-79
2022/01/14 02:19:10;;;;;;;27.23;8.43;;;;;;;3.23;100.00;103149.72;6332693;28;20083;-78
2022/01/14 02:22:14;;;;;;;22.27;8.15;;;;;;;3.27;100.00;103148.00;6335917;28;20642;-78
2022/01/14 02:25:16;;;;;;;23.95;7.22;;;;;;;3.29;100.00;103146.31;6348359;28;20054;-78
2022/01/14 02:28:20;;;;;;;25.42;7.30;;;;;;;3.29;100.00;103147.19;6340993;28;20147;-78
2022/01/14 02:31:21;;;;;;;21.73;7.88;;;;;;;3.32;100.00;103146.38;6333828;28;20063;-78
2022/01/14 02:34:23;;;;;;;27.08;6.95;;;;;;;3.29;100.00;103142.00;6341128;28;20052;-78
2022/01/14 02:37:26;;;;;;;31.00;7.47;;;;;;;3.36;100.00;103136.88;6333803;28;20047;-79
2022/01/14 02:40:28;;;;;;;25.02;8.02;;;;;;;3.33;100.00;103131.66;6331716;28;20134;-79
2022/01/14 02:43:29;;;;;;;28.05;7.43;;;;;;;3.29;100.00;103121.22;6332664;28;20114;-78
2022/01/14 02:46:36;;;;;;;28.30;7.38;;;;;;;3.31;100.00;103121.22;6348161;28;20048;-78
2022/01/14 02:49:39;;;;;;;26.63;8.23;;;;;;;3.34;100.00;103123.00;6357102;28;20047;-78
2022/01/14 02:52:54;;;;;;;20.35;7.40;;;;;;;3.40;100.00;103125.69;6356936;28;20054;-78
2022/01/14 02:55:57;;;;;;;23.13;7.32;;;;;;;3.35;100.00;103133.41;6358017;28;20135;-78
2022/01/14 02:59:00;;;;;;;20.17;7.30;;;;;;;3.36;100.00;103127.38;6355438;28;20040;-78
2022/01/14 03:02:03;;;;;;;19.23;6.80;;;;;;;3.39;100.00;103118.75;6357351;28;20576;-78
2022/01/14 03:05:06;;;;;;;24.52;8.43;;;;;;;3.36;100.00;103110.91;6357097;28;20517;-78
2022/01/14 03:08:09;;;;;;;22.45;7.80;;;;;;;3.41;100.00;103119.66;6355326;28;20047;-78
2022/01/14 03:11:13;;;;;;;22.73;9.77;;;;;;;3.39;100.00;103110.94;6345749;28;20063;-78
2022/01/14 03:14:22;;;;;;;24.13;6.68;;;;;;;3.42;100.00;103108.41;6355698;28;20048;-78
2022/01/14 03:17:23;;;;;;;21.90;8.07;;;;;;;3.39;100.00;103100.56;6356904;28;20133;-78
2022/01/14 03:20:44;;;;;;;22.30;6.70;;;;;;;3.38;100.00;103102.28;6357134;28;20066;-78
2022/01/14 03:24:02;;;;;;;28.55;7.18;;;;;;;3.50;100.00;103097.25;6359355;28;20051;-78
2022/01/14 03:27:04;;;;;;;20.83;8.35;;;;;;;3.39;100.00;103098.81;6365286;28;20047;-79
2022/01/14 03:30:06;;;;;;;16.23;6.10;;;;;;;3.41;100.00;103091.06;6361413;28;20055;-78
2022/01/14 03:33:08;;;;;;;21.65;7.68;;;;;;;3.39;100.00;103101.41;6363298;28;20051;-78
2022/01/14 03:36:09;;;;;;;23.30;7.65;;;;;;;3.39;100.00;103091.03;6362981;28;20051;-78
2022/01/14 03:39:12;;;;;;;24.50;7.75;;;;;;;3.40;100.00;103084.97;6360384;28;20510;-78
2022/01/14 03:42:13;;;;;;;32.08;8.75;;;;;;;3.39;100.00;103098.81;6357062;28;20039;-78
2022/01/14 03:45:17;;;;;;;24.50;7.90;;;;;;;3.41;100.00;103096.28;6357272;27;20048;-79
2022/01/14 03:48:19;;;;;;;37.28;9.05;;;;;;;3.46;100.00;103095.47;6356732;28;20422;-78
2022/01/14 03:51:22;;;;;;;23.20;7.72;;;;;;;3.46;100.00;103095.47;6356775;28;20050;-78
2022/01/14 03:54:25;;;;;;;32.08;7.88;;;;;;;3.43;100.00;103094.56;6357334;28;20051;-78
2022/01/14 03:57:26;;;;;;;23.45;8.95;;;;;;;3.40;100.00;103090.16;6357430;28;20408;-79
2022/01/14 04:00:30;;;;;;;24.85;8.32;;;;;;;3.44;100.00;103093.69;6333438;28;20059;-78
2022/01/14 04:03:31;;;;;;;36.60;8.23;;;;;;;3.49;100.00;103084.22;6332261;28;20059;-78
2022/01/14 04:06:33;;;;;;;24.70;7.93;;;;;;;3.46;100.00;103079.88;6333171;28;20059;-78
2022/01/14 04:09:37;;;;;;;27.23;7.82;;;;;;;3.45;100.00;103077.25;6332801;28;20419;-78
2022/01/14 04:12:47;;;;;;;30.77;7.75;;;;;;;3.46;100.00;103076.41;6331583;28;20084;-79
2022/01/14 04:15:48;;;;;;;23.50;8.73;;;;;;;3.44;100.00;103075.50;6331902;28;20063;-79
2022/01/14 04:18:51;;;;;;;18.38;7.85;;;;;;;3.42;100.00;103072.03;6331670;28;20123;-79
2022/01/14 04:21:52;;;;;;;26.65;7.97;;;;;;;3.51;100.00;103077.34;6333898;28;20518;-78
2022/01/14 04:24:55;;;;;;;23.88;9.50;;;;;;;3.45;100.00;103070.34;6343934;28;20047;-78
2022/01/14 04:27:56;;;;;;;28.73;8.50;;;;;;;3.44;100.00;103057.31;6343143;28;20079;-79
2022/01/14 04:30:58;;;;;;;27.92;8.95;;;;;;;3.41;100.00;103044.28;6329849;28;20438;-78
2022/01/14 04:34:00;;;;;;;22.02;8.68;;;;;;;3.42;100.00;103046.91;6340075;28;20048;-78
2022/01/14 04:37:01;;;;;;;22.58;7.28;;;;;;;3.41;100.00;103045.16;6330332;28;20052;-78
2022/01/14 04:40:06;;;;;;;24.02;8.15;;;;;;;3.39;100.00;103036.44;6329636;28;20051;-78
2022/01/14 04:43:08;;;;;;;25.00;7.80;;;;;;;3.40;100.00;103034.72;6330301;28;20411;-79
2022/01/14 04:46:48;;;;;;;25.48;7.82;;;;;;;3.41;100.00;103031.28;6336183;28;20047;-78
2022/01/14 04:49:49;;;;;;;22.73;8.68;;;;;;;3.38;100.00;103020.84;6332246;28;20040;-78
2022/01/14 04:52:51;;;;;;;25.90;7.43;;;;;;;3.39;100.00;103020.84;6330127;28;20419;-78
2022/01/14 04:55:55;;;;;;;19.88;7.40;;;;;;;3.43;100.00;103014.84;6338384;28;20047;-78
2022/01/14 04:58:57;;;;;;;18.05;6.38;;;;;;;3.47;100.00;103015.75;6343685;28;20067;-78
2022/01/14 05:01:59;;;;;;;20.10;7.78;;;;;;;3.43;100.00;103026.97;6355397;28;20048;-78
2022/01/14 05:05:01;;;;;;;21.38;9.23;;;;;;;3.45;100.00;103017.47;6348626;28;20043;-79
2022/01/14 05:08:05;;;;;;;24.63;8.38;;;;;;;3.44;100.00;103011.38;6355533;28;20047;-78
2022/01/14 05:11:23;;;;;;;25.33;10.27;;;;;;;3.47;100.00;102997.56;6349284;28;20431;-78
2022/01/14 05:14:24;;;;;;;19.30;7.65;;;;;;;3.43;100.00;102980.19;6338950;28;20067;-79
2022/01/14 05:17:26;;;;;;;22.17;8.02;;;;;;;3.46;100.00;102985.44;6330099;28;20059;-78
2022/01/14 05:20:27;;;;;;;25.20;7.57;;;;;;;3.45;100.00;102981.97;6329800;28;20052;-78
2022/01/14 05:23:28;;;;;;;28.80;9.32;;;;;;;3.46;100.00;102972.44;6329963;28;20048;-78
2022/01/14 05:26:31;;;;;;;26.45;7.85;;;;;;;3.45;100.00;102965.47;6329468;28;20059;-78
2022/01/14 05:29:32;;;;;;;27.95;9.93;;;;;;;3.46;100.00;102975.91;6334231;28;20035;-78
2022/01/14 05:32:34;;;;;;;25.85;8.85;;;;;;;3.43;100.00;102968.06;6354247;28;20051;-78
2022/01/14 05:35:35;;;;;;;29.30;8.30;;;;;;;3.52;100.00;102972.50;6354993;28;20051;-78
2022/01/14 05:38:36;;;;;;;22.55;9.23;;;;;;;3.46;100.00;102964.66;6355309;28;20499;-78
2022/01/14 05:41:39;;;;;;;25.75;8.40;;;;;;;3.47;100.00;102953.38;6354839;28;20055;-78
2022/01/14 05:44:41;;;;;;;21.85;7.85;;;;;;;3.57;100.00;102950.03;6355267;28;20541;-78
2022/01/14 05:47:43;;;;;;;32.45;9.15;;;;;;;3.50;100.00;102958.63;6352612;28;20074;-78
2022/01/14 05:50:44;;;;;;;25.77;8.95;;;;;;;3.50;100.00;102951.69;6351923;28;20040;-78
2022/01/14 05:53:45;;;;;;;27.80;8.93;;;;;;;3.54;100.00;102944.78;6352560;28;20043;-78
2022/01/14 05:56:49;;;;;;;21.80;7.68;;;;;;;3.54;100.00;102953.47;6353702;28;20047;-78
2022/01/14 05:59:50;;;;;;;26.40;7.85;;;;;;;3.52;100.00;102960.38;6346991;28;20054;-77
2022/01/14 06:02:52;;;;;;;19.45;7.53;;;;;;;3.55;100.00;102969.94;6338750;28;20465;-77
2022/01/14 06:05:54;;;;;;;29.75;9.27;;;;;;;3.57;100.00;102965.63;6336592;28;20055;-77
2022/01/14 06:08:55;;;;;;;28.63;8.30;;;;;;;3.55;100.00;102972.56;6341242;28;20128;-77
2022/01/14 06:11:58;;;;;;;25.67;8.73;;;;;;;3.59;100.00;102974.34;6350272;28;20067;-78
2022/01/14 06:15:00;;;;;;;21.02;7.78;;;;;;;3.60;100.00;102983.88;6349394;28;20043;-77
2022/01/14 06:18:02;;;;;;;18.92;8.77;;;;;;;3.65;100.00;102981.31;6341163;28;20051;-78
2022/01/14 06:21:04;;;;;;;29.90;8.75;;;;;;;3.70;100.00;102995.25;6349448;28;20167;-78
2022/01/14 06:24:06;;;;;;;29.95;8.07;;;;;;;3.78;100.00;102999.69;6341428;28;20598;-78
2022/01/14 06:27:09;;;;;;;28.98;8.38;;;;;;;3.77;100.00;102999.63;6341244;28;20047;-78
2022/01/14 06:30:11;;;;;;;20.95;6.82;;;;;;;3.81;100.00;102994.53;6342549;28;20044;-78
2022/01/14 06:33:13;;;;;;;22.73;8.75;;;;;;;3.76;100.00;103000.50;6338387;28;20043;-78
2022/01/14 06:36:14;;;;;;;23.67;8.68;;;;;;;3.77;100.00;103008.34;6337524;28;20048;-77
2022/01/14 06:39:16;;;;;;;25.40;7.75;;;;;;;3.84;100.00;103006.66;6338193;28;20051;-77
2022/01/14 06:42:19;;;;;;;22.27;8.13;;;;;;;3.90;100.00;103013.66;6335724;28;20054;-78
2022/01/14 06:45:21;;;;;;;23.92;8.23;;;;;;;3.87;100.00;103011.03;6334392;28;20456;-77
2022/01/14 06:48:22;;;;;;;20.40;7.57;;;;;;;3.88;100.00;103021.47;6335485;28;20563;-77
2022/01/14 06:51:23;;;;;;;32.88;9.38;;;;;;;3.90;100.00;103027.53;6333810;28;20043;-77
2022/01/14 06:54:25;;;;;;;31.70;10.43;;;;;;;3.88;100.00;103024.06;6324188;28;20048;-77
2022/01/14 06:57:28;;;;;;;19.38;6.70;;;;;;;3.87;100.00;103021.44;6323933;28;20056;-77
2022/01/14 07:00:29;;;;;;;23.42;7.90;;;;;;;3.86;100.00;103020.59;6323364;28;20418;-77
2022/01/14 07:03:30;;;;;;;21.83;9.35;;;;;;;3.83;100.00;103030.94;6324069;28;20048;-78
2022/01/14 07:06:32;;;;;;;19.83;8.00;;;;;;;3.84;100.00;103021.41;6334058;28;20055;-78
2022/01/14 07:09:34;;;;;;;24.67;8.23;;;;;;;3.86;100.00;103017.97;6350077;28;20044;-77
2022/01/14 07:12:38;;;;;;;17.88;8.00;;;;;;;3.85;100.00;103020.53;6350100;28;20457;-78
2022/01/14 07:15:40;;;;;;;24.33;7.88;;;;;;;3.87;100.00;103017.13;6351521;28;20044;-78
2022/01/14 07:18:45;;;;;;;25.50;9.20;;;;;;;3.90;100.00;103024.06;6351067;28;20103;-78
2022/01/14 07:21:46;;;;;;;30.95;9.00;;;;;;;3.90;100.00;103018.84;6351150;28;20057;-78
2022/01/14 07:24:48;;;;;;;25.77;9.48;;;;;;;3.89;100.00;103031.00;6351297;28;20415;-79
2022/01/14 07:27:51;;;;;;;30.08;10.55;;;;;;;3.93;100.00;103042.31;6332473;28;20055;-78
2022/01/14 07:30:52;;;;;;;30.05;10.65;;;;;;;3.90;100.00;103030.13;6329472;28;20392;-78
2022/01/14 07:33:53;;;;;;;31.95;9.73;;;;;;;3.97;100.00;103034.56;6349925;28;20494;-78
2022/01/14 07:36:55;;;;;;;29.25;8.50;;;;;;;3.89;100.00;103035.31;6325172;28;20052;-79
2022/01/14 07:39:56;;;;;;;20.92;8.70;;;;;;;3.92;100.00;103040.56;6325302;28;20047;-80
2022/01/14 07:42:59;;;;;;;27.42;9.05;;;;;;;3.92;100.00;103043.19;6323692;28;20500;-78
2022/01/14 07:46:00;;;;;;;31.50;10.13;;;;;;;4.01;100.00;103040.69;6323516;28;20052;-79
2022/01/14 07:49:01;;;;;;;31.95;10.27;;;;;;;3.93;100.00;103044.91;6323013;28;20115;-79
2022/01/14 07:52:03;;;;;;;31.63;9.73;;;;;;;3.93;100.00;103045.78;6322704;28;20059;-79
2022/01/14 07:55:06;;;;;;;19.83;7.88;;;;;;;3.97;100.00;103049.31;6339314;28;20058;-79
2022/01/14 07:58:08;;;;;;;45.33;10.80;;;;;;;3.96;100.00;103057.97;6348509;28;20509;-79
2022/01/14 08:01:10;;;;;;;23.80;9.27;;;;;;;3.97;100.00;103063.19;6345920;27;20048;-79
2022/01/14 08:04:13;;;;;;;24.15;9.38;;;;;;;3.99;100.00;103070.97;6339773;28;20059;-77
2022/01/14 08:07:17;;;;;;;28.02;9.57;;;;;;;4.01;100.00;103077.09;6333199;28;20055;-77
2022/01/14 08:10:18;;;;;;;39.15;8.93;;;;;;;3.98;100.00;103085.72;6339594;28;20059;-77
2022/01/14 08:13:21;;;;;;;26.90;9.77;;;;;;;4.03;100.00;103080.56;6334612;28;20514;-74
2022/01/14 08:16:22;;;;;;;27.73;8.73;;;;;;;4.04;100.00;103075.41;6325936;28;20044;-77
2022/01/14 08:19:24;;;;;;;18.23;7.82;;;;;;;4.09;100.00;103078.06;6336878;28;20039;-77
2022/01/14 08:22:25;;;;;;;28.30;9.85;;;;;;;4.09;100.00;103085.88;6342143;27;20461;-77
2022/01/14 08:25:27;;;;;;;28.25;11.73;;;;;;;4.13;100.00;103084.16;6365750;27;20409;-77
2022/01/14 08:28:29;;;;;;;30.23;9.40;;;;;;;4.09;100.00;103083.25;6349437;27;20044;-77
2022/01/14 08:31:31;;;;;;;28.77;10.25;;;;;;;4.16;100.00;103085.06;6355099;27;20054;-78
2022/01/14 08:34:32;;;;;;;24.23;8.52;;;;;;;4.12;100.00;103085.88;6352818;27;20047;-77
2022/01/14 08:37:34;;;;;;;26.33;8.20;;;;;;;4.13;100.00;103091.94;6336401;28;20652;-77
2022/01/14 08:40:35;;;;;;;29.38;9.73;;;;;;;4.18;100.00;103087.66;6359325;27;20517;-77
2022/01/14 08:43:38;;;;;;;19.25;8.35;;;;;;;4.17;100.00;103085.94;6374658;27;20043;-76
2022/01/14 08:46:39;;;;;;;22.85;9.15;;;;;;;4.19;100.00;103087.72;6337083;27;20047;-77
2022/01/14 08:49:43;;;;;;;27.45;9.20;;;;;;;4.23;100.00;103093.81;6333951;28;20051;-76
2022/01/14 08:52:44;;;;;;;28.63;8.25;;;;;;;4.24;100.00;103091.22;6336428;28;20051;-77
2022/01/14 08:55:47;;;;;;;33.88;10.18;;;;;;;4.25;100.00;103079.97;6351682;27;20478;-77
2022/01/14 08:58:50;;;;;;;30.58;9.63;;;;;;;4.27;100.00;103083.47;6343945;28;20050;-76
2022/01/14 09:01:51;;;;;;;27.70;9.45;;;;;;;4.30;100.00;103077.41;6340755;28;20040;-77
2022/01/14 09:04:52;;;;;;;25.45;9.80;;;;;;;4.31;100.00;103069.63;6351045;28;20449;-78
2022/01/14 09:07:54;;;;;;;22.42;9.32;;;;;;;4.43;100.00;103076.66;6340152;28;20490;-78
2022/01/14 09:10:55;;;;;;;24.83;8.80;;;;;;;4.43;100.00;103070.59;6331774;28;20047;-78
2022/01/14 09:13:58;;;;;;;31.95;9.43;;;;;;;4.43;100.00;103070.59;6333150;28;20048;-78
2022/01/14 09:16:59;;;;;;;20.98;7.95;;;;;;;4.45;100.00;103069.75;6324671;28;20056;-79
2022/01/14 09:20:02;;;;;;;22.33;8.48;;;;;;;4.53;100.00;103075.00;6335829;28;20044;-80
2022/01/14 09:23:04;;;;;;;23.92;8.70;;;;;;;4.50;100.00;103057.66;6330432;28;20112;-79
2022/01/14 09:26:05;;;;;;;20.65;8.23;;;;;;;4.57;100.00;103067.25;6336022;28;20048;-79
2022/01/14 09:29:08;;;;;;;28.38;9.40;;;;;;;4.66;100.00;103073.41;6330509;28;20122;-79
2022/01/14 09:32:11;;;;;;;24.55;8.75;;;;;;;4.59;100.00;103075.09;6328254;28;20134;-79
2022/01/14 09:35:13;;;;;;;24.83;8.57;;;;;;;4.59;100.00;103064.69;6325031;28;20048;-77
2022/01/14 09:38:14;;;;;;;19.98;8.55;;;;;;;4.62;100.00;103069.88;6333337;28;20052;-79
2022/01/14 09:41:18;;;;;;;24.52;8.93;;;;;;;4.60;100.00;103088.97;6340720;28;20051;-79
2022/01/14 09:44:21;;;;;;;33.65;9.73;;;;;;;4.68;100.00;103082.09;6324093;28;20052;-80
2022/01/14 09:47:23;;;;;;;21.88;9.35;;;;;;;4.62;100.00;103082.91;6324522;28;20055;-79
2022/01/14 09:50:24;;;;;;;22.98;8.93;;;;;;;4.68;100.00;103085.59;6323737;28;20601;-79
2022/01/14 09:53:27;;;;;;;30.73;9.60;;;;;;;4.65;100.00;103098.56;6326179;28;20055;-79
2022/01/14 09:56:28;;;;;;;26.33;9.77;;;;;;;4.70;100.00;103096.00;6336977;28;20059;-79
2022/01/14 09:59:31;;;;;;;27.38;10.32;;;;;;;4.76;100.00;103104.75;6352013;28;20047;-81
2022/01/14 10:02:34;;;;;;;25.58;8.50;;;;;;;4.78;100.00;103104.78;6351588;28;20055;-80
2022/01/14 10:05:37;;;;;;;23.80;8.05;;;;;;;4.83;100.00;103105.69;6351613;28;20495;-78
2022/01/14 10:08:39;;;;;;;19.08;8.55;;;;;;;4.89;100.00;103103.13;6350704;28;20525;-79
2022/01/14 10:11:43;;;;;;;27.65;9.48;;;;;;;4.88;100.00;103103.97;6349736;28;20052;-81
2022/01/14 10:14:55;;;;;;;30.80;9.82;;;;;;;4.91;100.00;103105.75;6348026;28;20434;-81
2022/01/14 10:18:00;;;;;;;20.25;8.52;;;;;;;4.95;100.00;103107.50;6325806;28;20058;-79
2022/01/14 10:21:03;;;;;;;29.88;9.13;;;;;;;4.95;100.00;103116.22;6324757;28;20131;-81
2022/01/14 10:24:11;;;;;;;32.35;8.70;;;;;;;4.99;100.00;103117.09;6324038;28;20507;-80
2022/01/14 10:27:12;;;;;;;22.88;9.98;;;;;;;5.04;100.00;103126.72;6323744;28;20513;-80
2022/01/14 10:30:20;;;;;;;20.38;7.32;;;;;;;5.02;100.00;103119.72;6323964;28;20048;-80
2022/01/14 10:33:27;;;;;;;24.17;9.20;;;;;;;5.04;100.00;103126.72;6323346;28;20048;-82
2022/01/14 10:36:28;;;;;;;26.15;8.95;;;;;;;5.05;100.00;103122.38;6323562;28;20055;-80
2022/01/14 10:39:29;;;;;;;19.85;7.82;;;;;;;5.12;100.00;103116.31;6324546;28;20485;-80
2022/01/14 10:42:33;;;;;;;25.42;8.40;;;;;;;5.12;100.00;103107.63;6324768;28;20052;-82
2022/01/14 10:45:37;;;;;;;24.35;8.82;;;;;;;5.12;100.00;103107.63;6323985;28;20044;-79
2022/01/14 10:48:40;;;;;;;28.73;10.35;;;;;;;5.14;100.00;103100.72;6331659;28;20066;-80
2022/01/14 10:51:44;;;;;;;26.75;8.70;;;;;;;5.17;100.00;103105.94;6338372;28;20048;-80
2022/01/14 10:54:48;;;;;;;24.67;8.52;;;;;;;5.13;100.00;103102.41;6344929;28;20540;-80
2022/01/14 10:57:50;;;;;;;24.17;10.38;;;;;;;5.16;100.00;103098.97;6339272;28;20051;-79
2022/01/14 11:00:59;;;;;;;29.30;9.02;;;;;;;5.15;100.00;103087.69;6329017;28;20169;-80
2022/01/14 11:04:10;;;;;;;21.90;8.10;;;;;;;5.18;100.00;103079.91;6322906;28;20361;-80
2022/01/14 11:07:22;;;;;;;28.70;9.38;;;;;;;5.16;100.00;103086.81;6328699;28;20048;-80
2022/01/14 11:10:28;;;;;;;23.15;8.18;;;;;;;5.22;100.00;103073.84;6333751;28;20046;-79
2022/01/14 11:13:29;;;;;;;21.83;8.05;;;;;;;5.30;100.00;103071.25;6333871;28;20051;-80
2022/01/14 11:16:33;;;;;;;25.02;9.23;;;;;;;5.34;100.00;103084.31;6324480;28;20431;-80
2022/01/14 11:19:34;;;;;;;22.77;8.55;;;;;;;5.33;100.00;103071.28;6323903;28;20491;-82
2022/01/14 11:26:04;;;;;;;26.52;9.40;;;;;;;5.32;100.00;103078.25;6324322;28;20048;-80
2022/01/14 11:29:09;;;;;;;19.67;7.55;;;;;;;5.40;100.00;103083.47;6323764;28;20055;-80
2022/01/14 11:32:12;;;;;;;21.27;8.15;;;;;;;5.38;100.00;103084.34;6344673;28;20063;-81
2022/01/14 11:35:20;;;;;;;20.60;8.93;;;;;;;5.35;100.00;103086.06;6348356;28;20054;-78
2022/01/14 11:38:41;;;;;;;23.60;9.52;;;;;;;5.43;100.00;103095.69;6348229;28;20074;-80
2022/01/14 11:41:54;;;;;;;15.60;8.05;;;;;;;5.33;100.00;103081.72;6348601;28;20055;-78
2022/01/14 11:45:00;;;;;;;22.98;7.95;;;;;;;5.32;100.00;103082.59;6349767;28;20073;-79
2022/01/14 11:48:03;;;;;;;20.50;7.60;;;;;;;5.30;100.00;103074.75;6353763;28;20414;-78
2022/01/14 11:51:07;;;;;;;20.13;7.68;;;;;;;5.40;100.00;103077.41;6352203;28;20046;-80
2022/01/14 11:54:08;;;;;;;19.67;7.95;;;;;;;5.41;100.00;103076.56;6351900;28;20052;-80
2022/01/14 11:57:11;;;;;;;19.60;8.30;;;;;;;5.47;100.00;103069.63;6352180;28;20054;-78
2022/01/14 12:00:33;;;;;;;27.17;8.63;;;;;;;5.45;100.00;103062.66;6349179;28;20047;-78
2022/01/14 12:03:49;;;;;;;20.25;8.63;;;;;;;5.52;100.00;103067.91;6355389;28;20055;-78
2022/01/14 12:06:59;;;;;;;22.23;8.13;;;;;;;5.44;100.00;103063.53;6353185;28;20507;-77
2022/01/14 12:10:07;;;;;;;23.55;7.60;;;;;;;5.49;100.00;103064.41;6356419;28;20418;-78
2022/01/14 12:13:40;;;;;;;20.90;9.52;;;;;;;5.47;100.00;103061.81;6357621;28;20048;-79
2022/01/14 12:16:49;;;;;;;25.80;8.82;;;;;;;5.47;100.00;103059.19;6324031;28;20056;-79
2022/01/14 12:19:54;;;;;;;23.25;7.65;;;;;;;5.45;100.00;103060.03;6328635;28;20514;-78
2022/01/14 12:23:06;;;;;;;23.25;7.15;;;;;;;5.45;100.00;103060.03;6331204;28;20044;-77
2022/01/14 12:26:15;;;;;;;24.13;8.15;;;;;;;5.45;100.00;103060.03;6330895;28;20048;-79
2022/01/14 12:29:17;;;;;;;22.77;8.20;;;;;;;5.48;100.00;103053.09;6331352;28;20048;-81
2022/01/14 12:32:20;;;;;;;14.70;7.75;;;;;;;5.47;100.00;103060.94;6330331;28;20048;-78
2022/01/14 12:35:29;;;;;;;18.02;7.80;;;;;;;5.53;100.00;103056.59;6329277;28;20056;-78
2022/01/14 12:38:32;;;;;;;22.23;8.35;;;;;;;5.48;100.00;103049.63;6328976;28;20052;-79
2022/01/14 12:41:33;;;;;;;23.25;7.85;;;;;;;5.48;100.00;103047.91;6328278;28;20048;-79
2022/01/14 12:44:39;;;;;;;20.75;8.13;;;;;;;5.43;100.00;103039.19;6327359;28;20048;-77
2022/01/14 12:47:42;;;;;;;21.77;8.98;;;;;;;5.43;100.00;103033.97;6331172;28;20044;-80
2022/01/14 12:50:45;;;;;;;22.38;9.10;;;;;;;5.40;100.00;103027.84;6330770;28;20047;-78
2022/01/14 12:53:51;;;;;;;18.25;7.55;;;;;;;5.47;100.00;103027.03;6350427;28;20048;-79
2022/01/14 12:56:54;;;;;;;19.65;7.82;;;;;;;5.39;100.00;103024.38;6357164;28;20410;-79
2022/01/14 12:59:55;;;;;;;18.17;7.47;;;;;;;5.33;100.00;103026.97;6355270;28;20111;-80
2022/01/14 13:02:59;;;;;;;25.08;7.82;;;;;;;5.30;100.00;103030.41;6356411;28;20043;-79
2022/01/14 13:06:02;;;;;;;22.50;7.35;;;;;;;5.36;100.00;103032.22;6356210;28;20395;-79
2022/01/14 13:09:03;;;;;;;18.67;7.22;;;;;;;5.35;100.00;103033.06;6348818;28;20114;-79
2022/01/14 13:12:07;;;;;;;22.50;7.75;;;;;;;5.25;100.00;103026.06;6337274;28;20051;-82
2022/01/14 13:15:11;;;;;;;17.52;7.13;;;;;;;5.28;100.00;103026.94;6342365;28;20048;-78
2022/01/14 13:18:20;;;;;;;15.63;7.65;;;;;;;5.29;100.00;103028.69;6336463;28;20071;-81
2022/01/14 13:21:23;;;;;;;18.30;8.07;;;;;;;5.27;100.00;103024.34;6337484;28;20048;-80
2022/01/14 13:24:27;;;;;;;25.75;7.88;;;;;;;5.22;100.00;103023.41;6341270;28;20052;-80
2022/01/14 13:27:30;;;;;;;19.73;7.32;;;;;;;5.26;100.00;103018.22;6340284;28;20052;-81
2022/01/14 13:30:35;;;;;;;21.95;8.18;;;;;;;5.31;100.00;103023.47;6345799;28;20047;-81
2022/01/14 13:33:37;;;;;;;26.13;7.43;;;;;;;5.31;100.00;103013.94;6359861;28;20115;-80
2022/01/14 13:36:40;;;;;;;25.08;8.45;;;;;;;5.32;100.00;103015.69;6359280;28;20043;-80
2022/01/14 13:39:42;;;;;;;22.05;7.35;;;;;;;5.34;100.00;103034.78;6355730;27;20517;-81
2022/01/14 13:42:46;;;;;;;18.55;8.27;;;;;;;5.31;100.00;103024.38;6361160;28;20076;-77
2022/01/14 13:45:52;;;;;;;21.48;9.48;;;;;;;5.30;100.00;103022.59;6356069;28;20078;-77
2022/01/14 13:48:53;;;;;;;23.15;8.45;;;;;;;5.31;100.00;103024.38;6355084;28;20131;-80
2022/01/14 13:52:08;;;;;;;21.75;8.07;;;;;;;5.29;100.00;103020.00;6343460;28;20040;-77
2022/01/14 13:55:10;;;;;;;20.08;6.78;;;;;;;5.30;100.00;103021.72;6345372;28;20108;-78
2022/01/14 13:58:15;;;;;;;19.45;9.07;;;;;;;5.30;100.00;103032.16;6357367;28;20054;-80
2022/01/14 14:01:17;;;;;;;18.15;7.63;;;;;;;5.25;100.00;103023.44;6360429;28;20425;-78
2022/01/14 14:04:27;;;;;;;21.60;8.52;;;;;;;5.24;100.00;103029.53;6358835;28;20048;-79
2022/01/14 14:07:45;;;;;;;19.38;6.60;;;;;;;5.22;100.00;103032.13;6358797;28;20044;-78
2022/01/14 14:17:41;;;;;;;21.55;7.90;;;;;;;5.17;100.00;103014.69;6332728;28;20052;-80
2022/01/14 14:20:42;;;;;;;18.38;8.55;;;;;;;5.16;100.00;103010.34;6333070;28;20040;-80
2022/01/14 14:23:45;;;;;;;21.55;8.13;;;;;;;5.15;100.00;103016.44;6352029;28;20055;-78
2022/01/14 14:26:48;;;;;;;22.15;8.45;;;;;;;5.12;100.00;103000.78;6346047;28;20422;-79